Yachats, OR

12:19 AM PST on February 06, 2016 (GMT -0800)
Stormwatcher's Retreat | | Change Station
CLOSE
Current Station
Personal Weather Station
Location: Yachats, OR
Elevation: 26 ft
Nearby Weather Stations

Elev 26 ft 44.31 °N, 124.11 °W | Updated 5 minutes ago

Partly Cloudy
Partly Cloudy
46.5 °F
Feels Like 46 °F
N
1.0
Wind Variable Wind from SE
Gusts 1.0 mph

Today
High -- | Low -- °F
--% Chance of Precip.
Yesterday
High -- | Low -- °F
Precip. -- in
Pressure 30.42 in
Visibility 5.0 miles
Clouds Scattered Clouds 2800 ft
Windchill 46 °F
Dew Point 44 °F
Humidity 92%
Rainfall 0.00 in
Snow Depth Not available.
7:28 AM 5:32 PM
Waning Crescent, 7% visible
METAR KONP 060755Z AUTO 18003KT 5SM BR SCT028 07/05 A3042 RMK AO2
Pressure 30.42 in
Visibility 5.0 miles
Clouds Scattered Clouds 2800 ft
Windchill 46 °F
Dew Point 44 °F
Humidity 92%
Rainfall 0.00 in
Snow Depth Not available.
7:28 AM 5:32 PM
Waning Crescent, 7% visible
METAR KONP 060755Z AUTO 18003KT 5SM BR SCT028 07/05 A3042 RMK AO2

10-Day Weather Forecast

Almanac

Astronomy

Feb. 06, 2016 Rise Set
Actual Time
Civil Twilight
Nautical Twilight
Astronomical Twilight
Moon
Length of Visible Light
Length of Day
Tomorrow will be .
, % of the Moon is Illuminated

Today's Extremes

State Highs State Lows

Community

WunderPhotos

Upload Photos

1,890,933 photos uploaded!

WunderBlog® & News

Nearby

Air Quality

  Air Quality AQ Index Pollutant
Not available.

Snow Depth

Station Depth Elevation

Earthquake Activity

City Distance Mag. Time & Date
Minimum magnitude displayed is 2.5.

Coastal Water Temperatures

Place Temperature

Stations

Nearby Weather Stations

Station Location Temp. Windchill Dew Point Humidity Wind Precip. Elev Updated Type
                   

Watches & Warnings

There are currently no watches in effect.